sensor_id;sensor_type;location;lat;lon;timestamp;pressure;altitude;pressure_sealevel;temperature;humidity
58295;BME280;45705;55.592;37.460;2024-01-07T00:00:16;99227.88;;;-17.39;71.99
58295;BME280;45705;55.592;37.460;2024-01-07T00:02:42;99234.03;;;-17.40;71.78
58295;BME280;45705;55.592;37.460;2024-01-07T00:05:08;99217.13;;;-17.56;71.31
58295;BME280;45705;55.592;37.460;2024-01-07T00:07:33;99227.94;;;-17.51;71.83
58295;BME280;45705;55.592;37.460;2024-01-07T00:09:59;99240.69;;;-17.48;71.86
58295;BME280;45705;55.592;37.460;2024-01-07T00:12:25;99229.84;;;-17.53;71.60
58295;BME280;45705;55.592;37.460;2024-01-07T00:14:51;99235.72;;;-17.51;71.47
58295;BME280;45705;55.592;37.460;2024-01-07T00:17:16;99237.63;;;-17.53;71.43
58295;BME280;45705;55.592;37.460;2024-01-07T00:19:42;99252.66;;;-17.56;71.51
58295;BME280;45705;55.592;37.460;2024-01-07T00:22:08;99255.31;;;-17.47;72.00
58295;BME280;45705;55.592;37.460;2024-01-07T00:24:34;99236.47;;;-17.60;71.06
58295;BME280;45705;55.592;37.460;2024-01-07T00:26:59;99263.09;;;-17.47;70.88
58295;BME280;45705;55.592;37.460;2024-01-07T00:29:25;99268.50;;;-17.59;70.99
58295;BME280;45705;55.592;37.460;2024-01-07T00:31:51;99272.03;;;-17.60;71.18
58295;BME280;45705;55.592;37.460;2024-01-07T00:34:17;99276.72;;;-17.54;71.09
58295;BME280;45705;55.592;37.460;2024-01-07T00:36:43;99285.53;;;-17.46;70.55
58295;BME280;45705;55.592;37.460;2024-01-07T00:39:08;99286.88;;;-17.51;70.59
58295;BME280;45705;55.592;37.460;2024-01-07T00:41:34;99291.81;;;-17.48;70.23
58295;BME280;45705;55.592;37.460;2024-01-07T00:44:00;99288.88;;;-17.55;70.84
58295;BME280;45705;55.592;37.460;2024-01-07T00:46:26;99292.00;;;-17.61;71.07
58295;BME280;45705;55.592;37.460;2024-01-07T00:48:51;99296.75;;;-17.77;71.18
58295;BME280;45705;55.592;37.460;2024-01-07T00:51:17;99308.78;;;-17.65;71.67
58295;BME280;45705;55.592;37.460;2024-01-07T00:53:43;99303.03;;;-17.48;70.95
58295;BME280;45705;55.592;37.460;2024-01-07T00:56:09;99317.38;;;-17.65;70.85
58295;BME280;45705;55.592;37.460;2024-01-07T00:58:38;99314.59;;;-18.05;71.33
58295;BME280;45705;55.592;37.460;2024-01-07T01:01:05;99330.50;;;-17.66;70.74
58295;BME280;45705;55.592;37.460;2024-01-07T01:03:31;99333.22;;;-17.68;70.75
58295;BME280;45705;55.592;37.460;2024-01-07T01:05:58;99342.00;;;-17.80;70.53
58295;BME280;45705;55.592;37.460;2024-01-07T01:08:24;99342.03;;;-17.91;70.57
58295;BME280;45705;55.592;37.460;2024-01-07T01:10:49;99328.44;;;-17.83;71.02
58295;BME280;45705;55.592;37.460;2024-01-07T01:13:15;99339.75;;;-17.73;70.59
58295;BME280;45705;55.592;37.460;2024-01-07T01:15:41;99346.84;;;-17.75;70.30
58295;BME280;45705;55.592;37.460;2024-01-07T01:18:07;99350.25;;;-17.75;69.91
58295;BME280;45705;55.592;37.460;2024-01-07T01:20:33;99355.09;;;-17.81;70.25
58295;BME280;45705;55.592;37.460;2024-01-07T01:22:59;99353.41;;;-17.92;69.91
58295;BME280;45705;55.592;37.460;2024-01-07T01:25:25;99364.13;;;-17.97;70.24
58295;BME280;45705;55.592;37.460;2024-01-07T01:27:52;99367.91;;;-18.01;70.28
58295;BME280;45705;55.592;37.460;2024-01-07T01:30:18;99374.50;;;-17.97;70.58
58295;BME280;45705;55.592;37.460;2024-01-07T01:32:44;99371.63;;;-17.82;70.26
58295;BME280;45705;55.592;37.460;2024-01-07T01:35:10;99377.34;;;-17.89;70.09
58295;BME280;45705;55.592;37.460;2024-01-07T01:37:36;99383.25;;;-17.87;69.70
58295;BME280;45705;55.592;37.460;2024-01-07T01:40:03;99386.56;;;-18.07;69.69
58295;BME280;45705;55.592;37.460;2024-01-07T01:42:29;99396.00;;;-18.17;69.65
58295;BME280;45705;55.592;37.460;2024-01-07T01:44:55;99394.25;;;-18.28;70.24
58295;BME280;45705;55.592;37.460;2024-01-07T01:47:25;99397.53;;;-18.15;70.15
58295;BME280;45705;55.592;37.460;2024-01-07T01:49:51;99413.38;;;-18.18;70.77
58295;BME280;45705;55.592;37.460;2024-01-07T01:52:17;99410.16;;;-18.33;70.34
58295;BME280;45705;55.592;37.460;2024-01-07T01:54:42;99408.75;;;-18.37;70.21
58295;BME280;45705;55.592;37.460;2024-01-07T01:57:15;99423.84;;;-18.31;70.14
58295;BME280;45705;55.592;37.460;2024-01-07T01:59:43;99426.66;;;-18.34;70.49
58295;BME280;45705;55.592;37.460;2024-01-07T02:02:08;99431.41;;;-18.39;70.08
58295;BME280;45705;55.592;37.460;2024-01-07T02:04:34;99430.41;;;-18.49;69.89
58295;BME280;45705;55.592;37.460;2024-01-07T02:07:00;99439.88;;;-18.48;69.52
58295;BME280;45705;55.592;37.460;2024-01-07T02:09:27;99444.13;;;-18.47;69.55
58295;BME280;45705;55.592;37.460;2024-01-07T02:12:03;99445.28;;;-18.51;69.08
58295;BME280;45705;55.592;37.460;2024-01-07T02:14:30;99449.03;;;-18.55;68.88
58295;BME280;45705;55.592;37.460;2024-01-07T02:16:56;99445.13;;;-18.72;69.43
58295;BME280;45705;55.592;37.460;2024-01-07T02:19:23;99453.94;;;-18.75;69.41
58295;BME280;45705;55.592;37.460;2024-01-07T02:21:52;99436.16;;;-18.91;69.82
58295;BME280;45705;55.592;37.460;2024-01-07T02:24:18;99447.59;;;-18.93;70.09
58295;BME280;45705;55.592;37.460;2024-01-07T02:26:44;99445.75;;;-19.04;69.88
58295;BME280;45705;55.592;37.460;2024-01-07T02:29:10;99449.72;;;-19.11;69.55
58295;BME280;45705;55.592;37.460;2024-01-07T02:31:36;99446.06;;;-19.20;70.13
58295;BME280;45705;55.592;37.460;2024-01-07T02:34:01;99439.63;;;-19.14;69.46
58295;BME280;45705;55.592;37.460;2024-01-07T02:36:27;99441.53;;;-19.29;69.00
58295;BME280;45705;55.592;37.460;2024-01-07T02:38:53;99432.34;;;-19.33;69.43
58295;BME280;45705;55.592;37.460;2024-01-07T02:41:19;99446.66;;;-19.16;70.07
58295;BME280;45705;55.592;37.460;2024-01-07T02:43:45;99439.66;;;-19.27;70.12
58295;BME280;45705;55.592;37.460;2024-01-07T02:46:11;99446.47;;;-19.37;69.41
58295;BME280;45705;55.592;37.460;2024-01-07T02:48:37;99453.25;;;-19.48;69.45
58295;BME280;45705;55.592;37.460;2024-01-07T02:51:03;99452.78;;;-19.41;69.81
58295;BME280;45705;55.592;37.460;2024-01-07T02:53:31;99459.13;;;-19.46;69.42
58295;BME280;45705;55.592;37.460;2024-01-07T02:55:57;99469.31;;;-19.31;69.96
58295;BME280;45705;55.592;37.460;2024-01-07T02:58:23;99475.84;;;-19.62;70.25
58295;BME280;45705;55.592;37.460;2024-01-07T03:00:49;99467.25;;;-19.26;69.65
58295;BME280;45705;55.592;37.460;2024-01-07T03:03:14;99478.88;;;-19.32;68.74
58295;BME280;45705;55.592;37.460;2024-01-07T03:05:40;99491.72;;;-19.30;68.79
58295;BME280;45705;55.592;37.460;2024-01-07T03:08:06;99478.88;;;-19.32;68.33
58295;BME280;45705;55.592;37.460;2024-01-07T03:10:33;99472.56;;;-19.65;68.42
58295;BME280;45705;55.592;37.460;2024-01-07T03:13:00;99491.56;;;-19.53;68.82
58295;BME280;45705;55.592;37.460;2024-01-07T03:15:26;99502.81;;;-19.65;68.59
58295;BME280;45705;55.592;37.460;2024-01-07T03:17:51;99504.63;;;-19.54;69.16
58295;BME280;45705;55.592;37.460;2024-01-07T03:20:17;99509.94;;;-19.69;69.27
58295;BME280;45705;55.592;37.460;2024-01-07T03:22:43;99501.94;;;-19.66;69.14
58295;BME280;45705;55.592;37.460;2024-01-07T03:25:09;99498.81;;;-19.58;68.78
58295;BME280;45705;55.592;37.460;2024-01-07T03:27:34;99511.66;;;-19.56;68.02
58295;BME280;45705;55.592;37.460;2024-01-07T03:30:00;99497.09;;;-19.70;68.06
58295;BME280;45705;55.592;37.460;2024-01-07T03:32:26;99516.47;;;-19.63;67.97
58295;BME280;45705;55.592;37.460;2024-01-07T03:34:52;99537.13;;;-19.74;68.16
58295;BME280;45705;55.592;37.460;2024-01-07T03:37:17;99510.00;;;-19.81;68.07
58295;BME280;45705;55.592;37.460;2024-01-07T03:39:44;99521.50;;;-19.86;68.57
58295;BME280;45705;55.592;37.460;2024-01-07T03:42:10;99543.22;;;-20.01;68.91
58295;BME280;45705;55.592;37.460;2024-01-07T03:44:38;99538.06;;;-19.88;69.42
58295;BME280;45705;55.592;37.460;2024-01-07T03:47:05;99526.13;;;-19.91;68.72
58295;BME280;45705;55.592;37.460;2024-01-07T03:49:31;99535.56;;;-19.90;68.89
58295;BME280;45705;55.592;37.460;2024-01-07T03:51:56;99541.16;;;-19.96;69.84
58295;BME280;45705;55.592;37.460;2024-01-07T03:54:22;99550.16;;;-19.89;69.17
58295;BME280;45705;55.592;37.460;2024-01-07T03:56:48;99562.91;;;-19.86;69.01
58295;BME280;45705;55.592;37.460;2024-01-07T03:59:14;99566.63;;;-19.90;68.61
58295;BME280;45705;55.592;37.460;2024-01-07T04:01:39;99568.50;;;-19.92;69.48
58295;BME280;45705;55.592;37.460;2024-01-07T04:04:05;99576.34;;;-20.06;68.92
58295;BME280;45705;55.592;37.460;2024-01-07T04:06:32;99561.75;;;-20.33;69.46
58295;BME280;45705;55.592;37.460;2024-01-07T04:08:58;99584.00;;;-20.05;69.44
58295;BME280;45705;55.592;37.460;2024-01-07T04:11:24;99574.09;;;-19.98;69.11
58295;BME280;45705;55.592;37.460;2024-01-07T04:13:49;99572.00;;;-20.18;68.69
58295;BME280;45705;55.592;37.460;2024-01-07T04:16:18;99579.47;;;-20.01;68.96
58295;BME280;45705;55.592;37.460;2024-01-07T04:18:46;99591.66;;;-20.29;69.09
58295;BME280;45705;55.592;37.460;2024-01-07T04:21:12;99586.59;;;-20.17;69.13
58295;BME280;45705;55.592;37.460;2024-01-07T04:23:39;99589.78;;;-20.14;69.09
58295;BME280;45705;55.592;37.460;2024-01-07T04:26:09;99589.56;;;-20.24;69.24
58295;BME280;45705;55.592;37.460;2024-01-07T04:28:35;99592.81;;;-20.07;69.42
58295;BME280;45705;55.592;37.460;2024-01-07T04:31:01;99591.78;;;-20.17;69.44
58295;BME280;45705;55.592;37.460;2024-01-07T04:33:27;99600.84;;;-20.25;69.20
58295;BME280;45705;55.592;37.460;2024-01-07T04:35:53;99598.28;;;-20.25;69.23
58295;BME280;45705;55.592;37.460;2024-01-07T04:38:24;99615.59;;;-20.39;68.92
58295;BME280;45705;55.592;37.460;2024-01-07T04:40:50;99618.34;;;-20.15;69.08
58295;BME280;45705;55.592;37.460;2024-01-07T04:43:20;99616.06;;;-20.33;68.32
58295;BME280;45705;55.592;37.460;2024-01-07T04:45:46;99620.06;;;-20.41;68.92
58295;BME280;45705;55.592;37.460;2024-01-07T04:48:13;99627.84;;;-20.29;69.30
58295;BME280;45705;55.592;37.460;2024-01-07T04:50:40;99630.44;;;-20.29;68.66
58295;BME280;45705;55.592;37.460;2024-01-07T04:53:09;99624.25;;;-20.53;68.44
58295;BME280;45705;55.592;37.460;2024-01-07T04:55:36;99633.63;;;-20.38;69.47
58295;BME280;45705;55.592;37.460;2024-01-07T04:58:02;99646.41;;;-20.49;68.49
58295;BME280;45705;55.592;37.460;2024-01-07T05:00:29;99646.41;;;-20.49;68.67
58295;BME280;45705;55.592;37.460;2024-01-07T05:02:55;99660.66;;;-20.56;68.53
58295;BME280;45705;55.592;37.460;2024-01-07T05:05:21;99664.25;;;-20.32;68.67
58295;BME280;45705;55.592;37.460;2024-01-07T05:07:46;99661.66;;;-20.32;68.29
58295;BME280;45705;55.592;37.460;2024-01-07T05:10:12;99668.28;;;-20.28;67.55
58295;BME280;45705;55.592;37.460;2024-01-07T05:12:38;99662.19;;;-20.27;66.81
58295;BME280;45705;55.592;37.460;2024-01-07T05:15:04;99660.75;;;-20.18;66.22
58295;BME280;45705;55.592;37.460;2024-01-07T05:17:31;99663.31;;;-20.31;65.91
58295;BME280;45705;55.592;37.460;2024-01-07T05:19:57;99661.97;;;-20.24;66.48
58295;BME280;45705;55.592;37.460;2024-01-07T05:22:22;99677.47;;;-20.36;66.93
58295;BME280;45705;55.592;37.460;2024-01-07T05:24:48;99675.31;;;-20.70;66.97
58295;BME280;45705;55.592;37.460;2024-01-07T05:27:14;99678.47;;;-20.52;66.71
58295;BME280;45705;55.592;37.460;2024-01-07T05:29:44;99680.16;;;-20.38;67.05
58295;BME280;45705;55.592;37.460;2024-01-07T05:32:10;99689.69;;;-20.38;66.88
58295;BME280;45705;55.592;37.460;2024-01-07T05:34:36;99692.47;;;-20.69;66.14
58295;BME280;45705;55.592;37.460;2024-01-07T05:37:01;99701.41;;;-20.60;66.10
58295;BME280;45705;55.592;37.460;2024-01-07T05:39:27;99698.50;;;-20.55;66.00
58295;BME280;45705;55.592;37.460;2024-01-07T05:41:53;99706.69;;;-20.76;66.00
58295;BME280;45705;55.592;37.460;2024-01-07T05:44:19;99712.41;;;-20.71;66.26
58295;BME280;45705;55.592;37.460;2024-01-07T05:46:44;99727.59;;;-21.08;66.06
58295;BME280;45705;55.592;37.460;2024-01-07T05:49:10;99727.75;;;-20.82;66.99
58295;BME280;45705;55.592;37.460;2024-01-07T05:51:40;99732.19;;;-20.84;67.65
58295;BME280;45705;55.592;37.460;2024-01-07T05:54:06;99739.97;;;-20.98;67.00
58295;BME280;45705;55.592;37.460;2024-01-07T05:56:32;99741.88;;;-21.02;66.48
58295;BME280;45705;55.592;37.460;2024-01-07T05:58:57;99749.19;;;-21.09;66.75
58295;BME280;45705;55.592;37.460;2024-01-07T06:01:23;99745.09;;;-21.13;66.60
58295;BME280;45705;55.592;37.460;2024-01-07T06:03:49;99764.22;;;-21.01;66.48
58295;BME280;45705;55.592;37.460;2024-01-07T06:06:15;99759.88;;;-21.00;66.82
58295;BME280;45705;55.592;37.460;2024-01-07T06:08:42;99770.50;;;-20.91;66.56
58295;BME280;45705;55.592;37.460;2024-01-07T06:11:09;99780.56;;;-21.00;66.78
58295;BME280;45705;55.592;37.460;2024-01-07T06:13:36;99783.97;;;-21.14;66.96
58295;BME280;45705;55.592;37.460;2024-01-07T06:16:02;99784.16;;;-20.47;66.30
58295;BME280;45705;55.592;37.460;2024-01-07T06:18:28;99792.34;;;-20.68;65.89
58295;BME280;45705;55.592;37.460;2024-01-07T06:20:54;99803.13;;;-20.61;65.87
58295;BME280;45705;55.592;37.460;2024-01-07T06:23:20;99807.09;;;-20.84;65.16
58295;BME280;45705;55.592;37.460;2024-01-07T06:25:45;99798.16;;;-20.93;65.29
58295;BME280;45705;55.592;37.460;2024-01-07T06:28:11;99806.91;;;-20.95;65.59
58295;BME280;45705;55.592;37.460;2024-01-07T06:30:37;99791.41;;;-21.10;64.79
58295;BME280;45705;55.592;37.460;2024-01-07T06:33:03;99803.25;;;-20.91;64.93
58295;BME280;45705;55.592;37.460;2024-01-07T06:35:29;99799.38;;;-20.70;64.59
58295;BME280;45705;55.592;37.460;2024-01-07T06:37:56;99795.66;;;-20.66;64.40
58295;BME280;45705;55.592;37.460;2024-01-07T06:40:21;99795.31;;;-20.05;63.17
58295;BME280;45705;55.592;37.460;2024-01-07T06:42:48;99797.00;;;-20.04;62.11
58295;BME280;45705;55.592;37.460;2024-01-07T06:45:16;99804.31;;;-19.83;61.91
58295;BME280;45705;55.592;37.460;2024-01-07T06:47:42;99802.41;;;-20.36;61.02
58295;BME280;45705;55.592;37.460;2024-01-07T06:50:09;99808.81;;;-20.00;62.33
58295;BME280;45705;55.592;37.460;2024-01-07T06:52:34;99790.94;;;-20.59;62.00
58295;BME280;45705;55.592;37.460;2024-01-07T06:55:00;99841.03;;;-20.47;61.87
58295;BME280;45705;55.592;37.460;2024-01-07T06:57:26;99843.44;;;-20.44;62.13
58295;BME280;45705;55.592;37.460;2024-01-07T06:59:52;99847.91;;;-20.75;62.73
58295;BME280;45705;55.592;37.460;2024-01-07T07:02:20;99836.91;;;-20.78;63.47
58295;BME280;45705;55.592;37.460;2024-01-07T07:04:46;99834.34;;;-20.22;62.45
58295;BME280;45705;55.592;37.460;2024-01-07T07:07:11;99848.38;;;-20.12;62.73
58295;BME280;45705;55.592;37.460;2024-01-07T07:09:37;99852.63;;;-20.11;62.17
58295;BME280;45705;55.592;37.460;2024-01-07T07:12:03;99858.81;;;-20.14;62.71
58295;BME280;45705;55.592;37.460;2024-01-07T07:14:29;99865.97;;;-19.90;62.39
58295;BME280;45705;55.592;37.460;2024-01-07T07:16:55;99843.91;;;-19.96;61.81
58295;BME280;45705;55.592;37.460;2024-01-07T07:19:20;99849.81;;;-19.94;61.97
58295;BME280;45705;55.592;37.460;2024-01-07T07:21:46;99846.31;;;-19.53;60.89
58295;BME280;45705;55.592;37.460;2024-01-07T07:24:12;99841.31;;;-19.16;59.66
58295;BME280;45705;55.592;37.460;2024-01-07T07:26:38;99837.72;;;-19.40;58.52
58295;BME280;45705;55.592;37.460;2024-01-07T07:29:09;99835.81;;;-19.64;59.68
58295;BME280;45705;55.592;37.460;2024-01-07T07:31:35;99858.66;;;-19.83;59.95
58295;BME280;45705;55.592;37.460;2024-01-07T07:34:03;99858.16;;;-20.03;60.17
58295;BME280;45705;55.592;37.460;2024-01-07T07:36:29;99856.00;;;-19.96;60.51
58295;BME280;45705;55.592;37.460;2024-01-07T07:38:55;99864.31;;;-19.91;60.85
58295;BME280;45705;55.592;37.460;2024-01-07T07:41:21;99864.16;;;-19.75;60.35
58295;BME280;45705;55.592;37.460;2024-01-07T07:43:47;99888.53;;;-19.92;60.71
58295;BME280;45705;55.592;37.460;2024-01-07T07:46:12;99882.00;;;-19.58;60.20
58295;BME280;45705;55.592;37.460;2024-01-07T07:48:39;99884.25;;;-19.66;60.43
58295;BME280;45705;55.592;37.460;2024-01-07T07:51:05;99892.69;;;-19.90;60.74
58295;BME280;45705;55.592;37.460;2024-01-07T07:53:31;99896.91;;;-19.74;60.89
58295;BME280;45705;55.592;37.460;2024-01-07T07:55:56;99901.66;;;-19.68;61.25
58295;BME280;45705;55.592;37.460;2024-01-07T07:58:22;99905.81;;;-19.93;61.07
58295;BME280;45705;55.592;37.460;2024-01-07T08:00:48;99916.72;;;-19.88;61.12
58295;BME280;45705;55.592;37.460;2024-01-07T08:03:14;99919.69;;;-19.94;61.64
58295;BME280;45705;55.592;37.460;2024-01-07T08:05:39;99920.22;;;-19.89;61.06
58295;BME280;45705;55.592;37.460;2024-01-07T08:08:07;99928.75;;;-19.87;61.14
58295;BME280;45705;55.592;37.460;2024-01-07T08:10:33;99931.81;;;-19.67;60.63
58295;BME280;45705;55.592;37.460;2024-01-07T08:13:01;99934.66;;;-19.85;60.64
58295;BME280;45705;55.592;37.460;2024-01-07T08:15:27;99929.56;;;-20.00;61.06
58295;BME280;45705;55.592;37.460;2024-01-07T08:17:53;99932.06;;;-19.85;61.39
58295;BME280;45705;55.592;37.460;2024-01-07T08:20:19;99938.63;;;-19.66;61.33
58295;BME280;45705;55.592;37.460;2024-01-07T08:22:47;99950.94;;;-19.70;60.70
58295;BME280;45705;55.592;37.460;2024-01-07T08:25:13;99952.47;;;-19.53;61.16
58295;BME280;45705;55.592;37.460;2024-01-07T08:27:41;99952.56;;;-19.81;60.83
58295;BME280;45705;55.592;37.460;2024-01-07T08:30:07;99956.75;;;-19.66;61.69
58295;BME280;45705;55.592;37.460;2024-01-07T08:32:33;99965.47;;;-19.67;61.30
58295;BME280;45705;55.592;37.460;2024-01-07T08:34:58;99956.03;;;-19.41;60.90
58295;BME280;45705;55.592;37.460;2024-01-07T08:37:24;99949.09;;;-20.09;61.68
58295;BME280;45705;55.592;37.460;2024-01-07T08:39:50;99973.47;;;-19.85;61.46
58295;BME280;45705;55.592;37.460;2024-01-07T08:42:16;99972.22;;;-19.79;61.58
58295;BME280;45705;55.592;37.460;2024-01-07T08:44:42;99963.13;;;-19.85;61.86
58295;BME280;45705;55.592;37.460;2024-01-07T08:47:08;99976.34;;;-19.48;61.13
58295;BME280;45705;55.592;37.460;2024-01-07T08:49:33;99962.34;;;-19.72;60.93
58295;BME280;45705;55.592;37.460;2024-01-07T08:52:00;99966.72;;;-19.60;61.42
58295;BME280;45705;55.592;37.460;2024-01-07T08:54:26;99962.66;;;-19.50;61.08
58295;BME280;45705;55.592;37.460;2024-01-07T08:56:51;99967.44;;;-19.43;60.34
58295;BME280;45705;55.592;37.460;2024-01-07T08:59:17;99964.41;;;-19.23;61.19
58295;BME280;45705;55.592;37.460;2024-01-07T09:01:43;99968.16;;;-19.14;60.81
58295;BME280;45705;55.592;37.460;2024-01-07T09:04:08;99950.69;;;-19.38;60.93
58295;BME280;45705;55.592;37.460;2024-01-07T09:06:34;99966.25;;;-19.52;60.98
58295;BME280;45705;55.592;37.460;2024-01-07T09:09:00;99979.25;;;-19.39;60.84
58295;BME280;45705;55.592;37.460;2024-01-07T09:11:26;99976.69;;;-19.54;61.11
58295;BME280;45705;55.592;37.460;2024-01-07T09:13:51;99969.69;;;-19.52;61.47
58295;BME280;45705;55.592;37.460;2024-01-07T09:16:17;99967.22;;;-19.40;61.06
58295;BME280;45705;55.592;37.460;2024-01-07T09:18:43;99969.78;;;-19.26;60.41
58295;BME280;45705;55.592;37.460;2024-01-07T09:21:12;99963.91;;;-19.42;61.46
58295;BME280;45705;55.592;37.460;2024-01-07T09:23:37;99976.44;;;-19.22;61.67
58295;BME280;45705;55.592;37.460;2024-01-07T09:26:03;99970.19;;;-18.92;61.68
58295;BME280;45705;55.592;37.460;2024-01-07T09:28:29;99985.03;;;-19.21;61.54
58295;BME280;45705;55.592;37.460;2024-01-07T09:30:55;99984.44;;;-19.39;61.31
58295;BME280;45705;55.592;37.460;2024-01-07T09:33:21;99985.56;;;-19.43;62.07
58295;BME280;45705;55.592;37.460;2024-01-07T09:35:52;99974.25;;;-19.42;61.62
58295;BME280;45705;55.592;37.460;2024-01-07T09:38:20;99999.06;;;-19.11;60.93
58295;BME280;45705;55.592;37.460;2024-01-07T09:40:46;99994.91;;;-18.74;61.71
58295;BME280;45705;55.592;37.460;2024-01-07T09:43:12;99994.22;;;-18.50;61.15
58295;BME280;45705;55.592;37.460;2024-01-07T09:45:42;99996.03;;;-18.91;61.69
58295;BME280;45705;55.592;37.460;2024-01-07T09:48:11;99991.25;;;-18.97;61.76
58295;BME280;45705;55.592;37.460;2024-01-07T09:50:37;99998.88;;;-19.08;62.19
58295;BME280;45705;55.592;37.460;2024-01-07T09:53:03;99983.38;;;-18.95;62.62
58295;BME280;45705;55.592;37.460;2024-01-07T09:55:53;99993.53;;;-18.92;63.29
58295;BME280;45705;55.592;37.460;2024-01-07T09:58:22;99989.72;;;-18.61;62.69
58295;BME280;45705;55.592;37.460;2024-01-07T10:00:49;99963.88;;;-18.88;62.29
58295;BME280;45705;55.592;37.460;2024-01-07T10:03:17;99984.09;;;-18.93;63.10
58295;BME280;45705;55.592;37.460;2024-01-07T10:05:43;99995.44;;;-18.81;62.96
58295;BME280;45705;55.592;37.460;2024-01-07T10:08:09;99992.09;;;-18.83;62.83
58295;BME280;45705;55.592;37.460;2024-01-07T10:10:35;99997.28;;;-18.71;62.00
58295;BME280;45705;55.592;37.460;2024-01-07T10:13:01;99993.19;;;-19.00;61.44
58295;BME280;45705;55.592;37.460;2024-01-07T10:15:26;99993.31;;;-18.76;61.52
58295;BME280;45705;55.592;37.460;2024-01-07T10:18:02;99958.69;;;-18.88;61.44
58295;BME280;45705;55.592;37.460;2024-01-07T10:20:29;99988.59;;;-18.70;61.26
58295;BME280;45705;55.592;37.460;2024-01-07T10:22:54;99984.44;;;-18.72;60.88
58295;BME280;45705;55.592;37.460;2024-01-07T10:25:20;99995.81;;;-18.75;61.18
58295;BME280;45705;55.592;37.460;2024-01-07T10:27:46;100004.09;;;-18.95;60.98
58295;BME280;45705;55.592;37.460;2024-01-07T10:30:12;100014.69;;;-18.73;61.01
58295;BME280;45705;55.592;37.460;2024-01-07T10:32:38;100011.59;;;-18.78;61.24
58295;BME280;45705;55.592;37.460;2024-01-07T10:35:04;100008.31;;;-18.80;61.54
58295;BME280;45705;55.592;37.460;2024-01-07T10:37:31;100019.09;;;-18.60;60.81
58295;BME280;45705;55.592;37.460;2024-01-07T10:39:58;99993.34;;;-18.89;59.89
58295;BME280;45705;55.592;37.460;2024-01-07T10:42:32;100013.13;;;-18.88;60.62
58295;BME280;45705;55.592;37.460;2024-01-07T10:45:02;100005.19;;;-18.59;59.37
58295;BME280;45705;55.592;37.460;2024-01-07T10:47:34;100012.56;;;-18.53;59.46
58295;BME280;45705;55.592;37.460;2024-01-07T10:50:02;100014.38;;;-18.41;59.24
58295;BME280;45705;55.592;37.460;2024-01-07T10:52:32;100018.28;;;-18.48;59.43
58295;BME280;45705;55.592;37.460;2024-01-07T10:55:08;100001.81;;;-18.74;59.71
58295;BME280;45705;55.592;37.460;2024-01-07T11:00:06;100012.19;;;-18.47;59.54
58295;BME280;45705;55.592;37.460;2024-01-07T11:05:29;100013.53;;;-18.29;58.62
58295;BME280;45705;55.592;37.460;2024-01-07T11:08:34;100011.06;;;-18.17;58.73
58295;BME280;45705;55.592;37.460;2024-01-07T11:11:15;100022.69;;;-18.10;58.89
58295;BME280;45705;55.592;37.460;2024-01-07T11:13:41;100018.00;;;-18.05;58.74
58295;BME280;45705;55.592;37.460;2024-01-07T11:16:08;100010.22;;;-18.31;57.80
58295;BME280;45705;55.592;37.460;2024-01-07T11:18:45;100020.56;;;-18.56;59.42
58295;BME280;45705;55.592;37.460;2024-01-07T11:21:20;100025.03;;;-17.81;58.77
58295;BME280;45705;55.592;37.460;2024-01-07T11:23:47;100030.00;;;-17.78;59.18
58295;BME280;45705;55.592;37.460;2024-01-07T11:26:13;100030.34;;;-18.47;59.48
58295;BME280;45705;55.592;37.460;2024-01-07T11:28:57;100024.78;;;-18.02;59.35
58295;BME280;45705;55.592;37.460;2024-01-07T11:31:45;100029.81;;;-18.52;59.99
58295;BME280;45705;55.592;37.460;2024-01-07T11:34:53;100029.06;;;-18.41;59.83
58295;BME280;45705;55.592;37.460;2024-01-07T11:37:20;100031.22;;;-18.08;60.19
58295;BME280;45705;55.592;37.460;2024-01-07T11:39:47;100004.41;;;-18.47;60.40
58295;BME280;45705;55.592;37.460;2024-01-07T11:42:14;100037.50;;;-18.12;59.66
58295;BME280;45705;55.592;37.460;2024-01-07T11:44:52;100032.63;;;-18.30;60.25
58295;BME280;45705;55.592;37.460;2024-01-07T11:47:19;100036.78;;;-18.14;60.87
58295;BME280;45705;55.592;37.460;2024-01-07T11:49:45;100037.44;;;-17.98;60.76
58295;BME280;45705;55.592;37.460;2024-01-07T11:52:12;100037.44;;;-18.23;60.08
58295;BME280;45705;55.592;37.460;2024-01-07T11:54:38;100040.53;;;-18.18;60.61
58295;BME280;45705;55.592;37.460;2024-01-07T11:57:08;100045.50;;;-18.41;60.18
58295;BME280;45705;55.592;37.460;2024-01-07T11:59:35;100023.31;;;-18.19;60.42
58295;BME280;45705;55.592;37.460;2024-01-07T12:02:02;100039.50;;;-18.16;59.52
58295;BME280;45705;55.592;37.460;2024-01-07T12:04:30;100043.00;;;-18.30;59.84
58295;BME280;45705;55.592;37.460;2024-01-07T12:06:56;100041.53;;;-18.34;60.96
58295;BME280;45705;55.592;37.460;2024-01-07T12:09:22;100035.72;;;-18.50;60.75
58295;BME280;45705;55.592;37.460;2024-01-07T12:11:48;100043.94;;;-18.31;60.84
58295;BME280;45705;55.592;37.460;2024-01-07T12:14:15;100046.44;;;-18.16;61.21
58295;BME280;45705;55.592;37.460;2024-01-07T12:16:41;100050.88;;;-18.44;60.54
58295;BME280;45705;55.592;37.460;2024-01-07T12:19:08;100046.41;;;-18.42;61.23
58295;BME280;45705;55.592;37.460;2024-01-07T12:21:35;100017.66;;;-18.52;61.17
58295;BME280;45705;55.592;37.460;2024-01-07T12:24:01;100051.53;;;-18.15;61.13
58295;BME280;45705;55.592;37.460;2024-01-07T12:26:27;100051.97;;;-18.08;60.33
58295;BME280;45705;55.592;37.460;2024-01-07T12:28:57;100068.72;;;-18.39;61.07
58295;BME280;45705;55.592;37.460;2024-01-07T12:31:28;100072.06;;;-18.37;61.28
58295;BME280;45705;55.592;37.460;2024-01-07T12:33:54;100061.97;;;-18.42;61.78
58295;BME280;45705;55.592;37.460;2024-01-07T12:36:22;100059.94;;;-18.37;61.78
58295;BME280;45705;55.592;37.460;2024-01-07T12:38:48;100055.88;;;-18.41;62.10
58295;BME280;45705;55.592;37.460;2024-01-07T12:41:14;100064.56;;;-18.55;61.99